Time;durP1;ratioP1;P1;durP2;ratioP2;P2;SDS_P1;SDS_P2;PMS_P1;PMS_P2;Temp;Humidity;BMP_temperature;BMP_pressure;BME280_temperature;BME280_humidity;BME280_pressure;Samples;Min_cycle;Max_cycle;Signal;HPM_P1;HPM_P2
2022/09/07 00:00:38;;;;;;;12.57;6.00;;;17.00;99.90;;;;;;5039285;28;20115;-80
2022/09/07 00:03:04;;;;;;;10.88;5.28;;;17.00;99.90;;;;;;5049136;28;20041;-79
2022/09/07 00:05:30;;;;;;;14.38;5.65;;;17.00;99.90;;;;;;5048954;28;20029;-80
2022/09/07 00:07:56;;;;;;;11.15;5.68;;;17.00;99.90;;;;;;5048243;28;20090;-80
2022/09/07 00:10:23;;;;;;;12.15;5.45;;;17.10;99.90;;;;;;5034632;28;20033;-79
2022/09/07 00:12:49;;;;;;;13.93;5.70;;;17.00;99.90;;;;;;5041794;28;20108;-79
2022/09/07 00:15:15;;;;;;;15.70;5.75;;;17.10;99.90;;;;;;5043921;28;20071;-80
2022/09/07 00:17:41;;;;;;;12.65;5.90;;;17.10;99.90;;;;;;5039498;28;20469;-80
2022/09/07 00:20:08;;;;;;;10.80;5.47;;;17.10;99.90;;;;;;5036045;28;20155;-79
2022/09/07 00:22:34;;;;;;;13.43;5.40;;;17.10;99.90;;;;;;5048342;28;20072;-80
2022/09/07 00:24:59;;;;;;;17.15;5.85;;;17.10;99.90;;;;;;5047845;28;20072;-80
2022/09/07 00:27:25;;;;;;;16.13;6.22;;;17.10;99.90;;;;;;5047741;28;20104;-80
2022/09/07 00:29:50;;;;;;;10.27;5.53;;;17.10;99.90;;;;;;5035726;28;20041;-80
2022/09/07 00:32:16;;;;;;;18.30;6.00;;;17.20;99.90;;;;;;5032719;28;20029;-79
2022/09/07 00:34:41;;;;;;;11.23;5.18;;;17.20;99.90;;;;;;5048535;28;20412;-79
2022/09/07 00:37:07;;;;;;;12.38;5.47;;;17.20;99.90;;;;;;5043516;28;20037;-80
2022/09/07 00:39:33;;;;;;;15.88;6.13;;;17.20;99.90;;;;;;5028089;28;20528;-80
2022/09/07 00:41:59;;;;;;;14.30;5.43;;;17.20;99.90;;;;;;5028512;28;20044;-80
2022/09/07 00:44:58;;;;;;;12.32;5.32;;;17.20;99.90;;;;;;5028277;28;20041;-79
2022/09/07 00:47:34;;;;;;;12.48;5.03;;;17.20;99.90;;;;;;5027817;28;20041;-79
2022/09/07 00:50:10;;;;;;;12.95;5.63;;;17.20;99.90;;;;;;5028244;28;20544;-79
2022/09/07 00:52:37;;;;;;;9.55;5.20;;;17.20;99.90;;;;;;5022936;28;20049;-79
2022/09/07 00:55:08;;;;;;;12.15;5.90;;;17.20;99.90;;;;;;5047826;28;20029;-79
2022/09/07 00:57:35;;;;;;;14.00;5.85;;;17.20;99.90;;;;;;5038395;28;20510;-79
2022/09/07 01:00:02;;;;;;;11.20;4.65;;;17.20;99.90;;;;;;5038576;28;20036;-80
2022/09/07 01:02:27;;;;;;;10.10;5.18;;;17.20;99.90;;;;;;5036201;28;20083;-80
2022/09/07 01:05:00;;;;;;;17.88;5.43;;;17.20;99.90;;;;;;5036448;28;20041;-79
2022/09/07 01:07:26;;;;;;;10.52;5.43;;;17.20;99.90;;;;;;5038677;28;20033;-80
2022/09/07 01:09:51;;;;;;;8.70;5.13;;;17.20;99.90;;;;;;5038940;28;20055;-80
2022/09/07 01:12:17;;;;;;;11.63;5.85;;;17.20;99.90;;;;;;5048196;28;20060;-79
2022/09/07 01:14:49;;;;;;;11.98;5.60;;;17.10;99.90;;;;;;5047620;28;20371;-79
2022/09/07 01:17:37;;;;;;;10.35;5.13;;;17.10;99.90;;;;;;5027927;28;20026;-79
2022/09/07 01:20:37;;;;;;;19.52;6.20;;;17.10;99.90;;;;;;5023842;28;20030;-80
2022/09/07 01:23:06;;;;;;;10.32;5.60;;;17.10;99.90;;;;;;5028474;28;20041;-79
2022/09/07 01:26:08;;;;;;;12.20;5.43;;;17.10;99.90;;;;;;5048204;28;20490;-79
2022/09/07 01:28:34;;;;;;;13.45;5.88;;;17.10;99.90;;;;;;5023071;28;20029;-80
2022/09/07 01:31:08;;;;;;;11.45;5.93;;;17.00;99.90;;;;;;5047753;28;20818;-79
2022/09/07 01:33:59;;;;;;;12.65;5.95;;;17.00;99.90;;;;;;5051788;28;20037;-79
2022/09/07 01:37:00;;;;;;;14.77;6.10;;;17.00;99.90;;;;;;5032693;28;20065;-80
2022/09/07 01:39:39;;;;;;;13.35;6.30;;;17.00;99.90;;;;;;5029698;28;20152;-80
2022/09/07 01:42:09;;;;;;;12.85;5.70;;;17.00;99.90;;;;;;5042385;28;20029;-80
2022/09/07 01:44:54;;;;;;;13.82;6.43;;;17.00;99.90;;;;;;5045628;28;20064;-79
2022/09/07 01:47:44;;;;;;;15.25;5.50;;;16.90;99.90;;;;;;5042675;28;20781;-80
2022/09/07 01:50:27;;;;;;;12.95;5.38;;;16.90;99.90;;;;;;5040784;28;20028;-79
2022/09/07 01:53:15;;;;;;;14.82;5.65;;;16.90;99.90;;;;;;5036362;28;20552;-79
2022/09/07 01:56:02;;;;;;;15.02;5.45;;;16.90;99.90;;;;;;5029494;28;20537;-80
2022/09/07 01:58:43;;;;;;;15.98;5.95;;;16.90;99.90;;;;;;5037308;28;20060;-80
2022/09/07 02:01:17;;;;;;;15.23;5.68;;;16.90;99.90;;;;;;5052105;28;20398;-79
2022/09/07 02:04:02;;;;;;;12.75;5.55;;;16.90;99.90;;;;;;5044463;28;20047;-79
2022/09/07 02:06:54;;;;;;;9.80;5.50;;;16.90;99.90;;;;;;5051243;28;20141;-79
2022/09/07 02:09:23;;;;;;;11.60;4.82;;;16.90;99.90;;;;;;5051253;28;20027;-80
2022/09/07 02:11:49;;;;;;;10.73;5.07;;;16.90;99.90;;;;;;5050635;28;20444;-80
2022/09/07 02:14:33;;;;;;;12.00;4.85;;;17.00;99.90;;;;;;5035570;28;20100;-79
2022/09/07 02:17:07;;;;;;;10.43;4.40;;;17.00;99.90;;;;;;5033588;28;20087;-79
2022/09/07 02:19:39;;;;;;;10.05;4.72;;;17.00;99.90;;;;;;5051171;28;20118;-79
2022/09/07 02:22:10;;;;;;;15.75;5.18;;;17.00;99.90;;;;;;5050732;28;20025;-79
2022/09/07 02:24:40;;;;;;;11.27;4.43;;;17.00;99.90;;;;;;5040982;28;20032;-80
2022/09/07 02:27:15;;;;;;;10.50;4.50;;;17.00;99.90;;;;;;5036254;28;20053;-80
2022/09/07 02:29:42;;;;;;;13.02;4.65;;;17.00;99.90;;;;;;5050744;28;20032;-79
2022/09/07 02:32:08;;;;;;;13.00;4.38;;;17.00;99.90;;;;;;5039857;28;20103;-79
2022/09/07 02:34:33;;;;;;;9.82;3.90;;;17.00;99.90;;;;;;5038848;28;20071;-79
2022/09/07 02:37:01;;;;;;;11.80;4.07;;;17.00;99.90;;;;;;5050167;28;20059;-80
2022/09/07 02:39:27;;;;;;;9.48;4.15;;;17.00;99.90;;;;;;5050468;28;20028;-79
2022/09/07 02:41:52;;;;;;;10.00;4.03;;;17.00;99.90;;;;;;5051057;28;20029;-79
2022/09/07 02:44:22;;;;;;;9.48;3.97;;;17.10;99.90;;;;;;5037996;28;20033;-79
2022/09/07 02:46:50;;;;;;;11.65;4.00;;;17.00;99.90;;;;;;5042298;28;20041;-79
2022/09/07 02:49:34;;;;;;;11.07;4.30;;;17.00;99.90;;;;;;5035636;28;20025;-79
2022/09/07 02:52:41;;;;;;;10.63;4.22;;;17.00;99.90;;;;;;5050534;28;20025;-79
2022/09/07 02:55:43;;;;;;;16.10;4.82;;;17.00;99.90;;;;;;5024397;28;20474;-80
2022/09/07 02:58:20;;;;;;;12.70;4.38;;;17.00;99.90;;;;;;5032082;28;20072;-79
2022/09/07 03:01:23;;;;;;;7.82;4.13;;;17.00;99.90;;;;;;5049779;28;20092;-79
2022/09/07 03:04:00;;;;;;;14.25;4.35;;;17.00;99.90;;;;;;5041062;28;20525;-79
2022/09/07 03:06:31;;;;;;;8.50;4.15;;;17.00;99.90;;;;;;5039189;28;20037;-79
2022/09/07 03:09:00;;;;;;;9.60;4.03;;;17.00;99.90;;;;;;5040140;28;20025;-79
2022/09/07 03:11:27;;;;;;;12.73;4.15;;;17.00;99.90;;;;;;5031350;28;20053;-79
2022/09/07 03:14:21;;;;;;;10.07;4.18;;;17.00;99.90;;;;;;5049971;28;20021;-79
2022/09/07 03:16:52;;;;;;;10.60;4.18;;;16.90;99.90;;;;;;5049965;28;20335;-79
2022/09/07 03:19:18;;;;;;;9.65;4.25;;;17.00;99.90;;;;;;5039957;28;20039;-79
2022/09/07 03:21:44;;;;;;;13.15;3.97;;;16.90;99.90;;;;;;5045872;28;20112;-80
2022/09/07 03:24:10;;;;;;;11.73;3.50;;;16.90;99.90;;;;;;5049469;28;20033;-80
2022/09/07 03:26:39;;;;;;;13.27;3.70;;;16.90;99.90;;;;;;5038867;28;20113;-79
2022/09/07 03:29:05;;;;;;;10.27;3.80;;;16.80;99.90;;;;;;5039067;28;20545;-79
2022/09/07 03:31:32;;;;;;;12.32;3.88;;;16.80;99.90;;;;;;5038654;28;20131;-79
2022/09/07 03:33:57;;;;;;;14.35;3.53;;;16.80;99.90;;;;;;5049021;28;20112;-79
2022/09/07 03:36:23;;;;;;;11.02;3.75;;;16.80;99.90;;;;;;5049736;28;20108;-79
2022/09/07 03:38:49;;;;;;;13.30;3.47;;;16.70;99.90;;;;;;5040651;28;20036;-80
2022/09/07 03:41:14;;;;;;;12.50;5.07;;;16.70;99.90;;;;;;5033623;28;20371;-79
2022/09/07 03:43:40;;;;;;;9.88;3.63;;;16.70;99.90;;;;;;5049358;28;20438;-80
2022/09/07 03:46:06;;;;;;;10.40;3.92;;;16.70;99.90;;;;;;5048773;28;20036;-79
2022/09/07 03:48:34;;;;;;;8.88;4.03;;;16.60;99.90;;;;;;5047604;28;20136;-79
2022/09/07 03:51:05;;;;;;;9.38;4.00;;;16.60;99.90;;;;;;5043755;28;20040;-79
2022/09/07 03:53:32;;;;;;;9.73;3.60;;;16.60;99.90;;;;;;5048876;28;20082;-80
2022/09/07 03:56:04;;;;;;;11.23;4.05;;;16.60;99.90;;;;;;5049122;28;20142;-79
2022/09/07 03:58:31;;;;;;;8.30;4.20;;;16.60;99.90;;;;;;5046718;28;20048;-80
2022/09/07 04:00:58;;;;;;;8.75;4.45;;;16.60;99.90;;;;;;5042060;28;20497;-79
2022/09/07 04:03:24;;;;;;;8.88;4.63;;;16.60;99.90;;;;;;5047516;28;20044;-79
2022/09/07 04:05:49;;;;;;;9.13;4.57;;;16.60;99.90;;;;;;5048672;28;20033;-79
2022/09/07 04:08:15;;;;;;;9.48;4.20;;;16.60;99.90;;;;;;5048221;28;20115;-79
2022/09/07 04:10:41;;;;;;;8.75;3.97;;;16.60;99.90;;;;;;5030165;28;20368;-79
2022/09/07 04:13:07;;;;;;;7.60;3.83;;;16.60;99.90;;;;;;5041778;28;20029;-79
2022/09/07 04:15:33;;;;;;;10.23;3.90;;;16.60;99.90;;;;;;5048752;28;20033;-80
2022/09/07 04:17:59;;;;;;;14.90;4.20;;;16.60;99.90;;;;;;5048559;28;20025;-80
2022/09/07 04:20:24;;;;;;;11.02;4.30;;;16.60;99.90;;;;;;5037136;28;20040;-80
2022/09/07 04:22:50;;;;;;;9.73;3.90;;;16.60;99.90;;;;;;5040168;28;20036;-80
2022/09/07 04:25:16;;;;;;;9.93;4.00;;;16.70;99.90;;;;;;5044696;28;20095;-79
2022/09/07 04:27:41;;;;;;;14.20;4.50;;;16.60;99.90;;;;;;5047547;28;20199;-79
2022/09/07 04:30:08;;;;;;;7.60;4.50;;;16.60;99.90;;;;;;5045507;28;20115;-79
2022/09/07 04:32:34;;;;;;;15.02;5.30;;;16.60;99.90;;;;;;5035461;28;20424;-79
2022/09/07 04:34:59;;;;;;;12.70;5.40;;;16.60;99.90;;;;;;5041751;28;20033;-79
2022/09/07 04:37:25;;;;;;;14.07;5.80;;;16.60;99.90;;;;;;5044717;28;20846;-79
2022/09/07 04:39:50;;;;;;;12.75;5.95;;;16.60;99.90;;;;;;5045460;28;20482;-80
2022/09/07 04:42:17;;;;;;;11.93;5.20;;;16.70;99.90;;;;;;5047580;28;20470;-79
2022/09/07 04:44:42;;;;;;;15.50;4.50;;;16.60;99.90;;;;;;5040629;28;20359;-79
2022/09/07 04:47:08;;;;;;;10.13;4.60;;;16.70;99.90;;;;;;5042365;28;20127;-79
2022/09/07 04:49:34;;;;;;;11.07;4.65;;;16.70;99.90;;;;;;5037472;28;20036;-79
2022/09/07 04:51:59;;;;;;;9.52;4.00;;;16.70;99.90;;;;;;5040231;28;20546;-79
2022/09/07 04:54:25;;;;;;;9.90;4.28;;;16.70;99.90;;;;;;5040852;28;20385;-79
2022/09/07 04:56:51;;;;;;;10.27;4.35;;;16.70;99.90;;;;;;5043140;28;20041;-79
2022/09/07 04:59:16;;;;;;;8.48;4.32;;;16.70;99.90;;;;;;5038243;28;20017;-79
2022/09/07 05:01:42;;;;;;;10.65;3.80;;;16.70;99.90;;;;;;5045891;28;20425;-79
2022/09/07 05:04:08;;;;;;;6.65;3.58;;;16.80;99.90;;;;;;5043122;28;20480;-79
2022/09/07 05:06:33;;;;;;;7.50;3.65;;;16.80;99.90;;;;;;5045327;28;20060;-79
2022/09/07 05:08:59;;;;;;;12.55;3.75;;;16.80;99.90;;;;;;5039000;28;20048;-79
2022/09/07 05:11:26;;;;;;;7.13;3.45;;;16.90;99.90;;;;;;5037408;28;20029;-79
2022/09/07 05:13:51;;;;;;;9.00;3.65;;;16.90;99.90;;;;;;5032916;28;20418;-79
2022/09/07 05:16:20;;;;;;;9.60;3.30;;;17.00;99.90;;;;;;5041029;28;20030;-79
2022/09/07 05:18:51;;;;;;;11.05;3.63;;;17.00;99.90;;;;;;5033459;28;20327;-81
2022/09/07 05:21:20;;;;;;;9.57;4.03;;;17.10;99.90;;;;;;5033284;28;20450;-81
2022/09/07 05:23:49;;;;;;;9.73;3.60;;;17.10;99.90;;;;;;5033427;28;20052;-80
2022/09/07 05:26:14;;;;;;;9.60;3.60;;;17.10;99.90;;;;;;5032213;28;20071;-81
2022/09/07 05:28:40;;;;;;;11.43;3.67;;;17.10;99.90;;;;;;5033541;28;20025;-81
2022/09/07 05:31:10;;;;;;;9.68;3.95;;;17.10;99.90;;;;;;5049506;28;20021;-81
2022/09/07 05:33:35;;;;;;;12.95;5.05;;;17.10;99.90;;;;;;5043100;28;20033;-81
2022/09/07 05:36:02;;;;;;;13.55;5.50;;;17.00;99.90;;;;;;5034983;28;20021;-81
2022/09/07 05:38:28;;;;;;;18.23;4.78;;;17.00;99.90;;;;;;5032145;28;20025;-80
2022/09/07 05:40:54;;;;;;;12.00;4.50;;;17.00;99.90;;;;;;5048096;28;20031;-80
2022/09/07 05:43:20;;;;;;;11.43;3.90;;;16.90;99.90;;;;;;5045873;28;20108;-81
2022/09/07 05:45:46;;;;;;;9.63;3.88;;;16.90;99.90;;;;;;5034113;28;20021;-80
2022/09/07 05:48:12;;;;;;;8.98;4.15;;;16.90;99.90;;;;;;5046958;28;20032;-80
2022/09/07 05:50:37;;;;;;;12.23;4.38;;;16.80;99.90;;;;;;5031363;28;20026;-80
2022/09/07 05:53:03;;;;;;;15.63;4.65;;;16.80;99.90;;;;;;5031197;28;20038;-80
2022/09/07 05:55:31;;;;;;;12.25;4.28;;;16.80;99.90;;;;;;5031104;28;20677;-80
2022/09/07 05:57:57;;;;;;;10.30;3.88;;;16.80;99.90;;;;;;5031035;28;20025;-80
2022/09/07 06:00:23;;;;;;;14.43;4.57;;;16.80;99.90;;;;;;5029819;28;20478;-80
2022/09/07 06:02:48;;;;;;;9.40;4.57;;;16.80;99.90;;;;;;5030457;28;20033;-81
2022/09/07 06:05:14;;;;;;;11.00;4.60;;;16.80;99.90;;;;;;5030332;28;20025;-81
2022/09/07 06:07:39;;;;;;;10.30;4.80;;;16.80;99.90;;;;;;5020904;28;20029;-80
2022/09/07 06:10:06;;;;;;;11.25;4.43;;;16.80;99.90;;;;;;5029868;28;20324;-80
2022/09/07 06:12:32;;;;;;;8.73;4.22;;;16.80;99.90;;;;;;5029874;28;20018;-80
2022/09/07 06:15:00;;;;;;;13.85;4.68;;;16.90;99.90;;;;;;5029451;28;20026;-81
2022/09/07 06:17:29;;;;;;;10.70;4.82;;;16.80;99.90;;;;;;5034843;28;20131;-80
2022/09/07 06:19:56;;;;;;;11.52;4.90;;;16.90;99.90;;;;;;5034080;28;20028;-80
2022/09/07 06:22:21;;;;;;;10.15;4.30;;;16.90;99.90;;;;;;5030086;28;20689;-80
2022/09/07 06:24:47;;;;;;;9.43;4.90;;;16.90;99.90;;;;;;5029816;28;20060;-81
2022/09/07 06:27:12;;;;;;;10.07;3.80;;;16.90;99.90;;;;;;5034935;28;20044;-81
2022/09/07 06:29:38;;;;;;;10.02;4.22;;;17.00;99.90;;;;;;5042082;28;20021;-81
2022/09/07 06:32:03;;;;;;;8.57;4.18;;;17.00;99.90;;;;;;5029112;28;20044;-80
2022/09/07 06:34:29;;;;;;;12.32;5.10;;;17.10;99.90;;;;;;5044742;28;20091;-80
2022/09/07 06:36:55;;;;;;;9.02;4.40;;;17.20;99.90;;;;;;5045120;28;20039;-80
2022/09/07 06:39:20;;;;;;;10.57;4.50;;;17.30;99.90;;;;;;5035272;28;20030;-81
2022/09/07 06:41:46;;;;;;;11.77;4.60;;;17.40;99.90;;;;;;5042730;28;20034;-81
2022/09/07 06:44:12;;;;;;;10.10;4.60;;;17.50;99.90;;;;;;5035539;28;20040;-81
2022/09/07 06:46:37;;;;;;;8.27;4.18;;;17.60;99.90;;;;;;5040914;28;20028;-80
2022/09/07 06:49:03;;;;;;;17.10;4.35;;;17.60;99.90;;;;;;5036765;28;20041;-81
2022/09/07 06:51:29;;;;;;;9.50;4.38;;;17.70;99.90;;;;;;5034128;28;20761;-81
2022/09/07 06:53:55;;;;;;;14.20;4.00;;;17.80;99.90;;;;;;5034124;28;20044;-81
2022/09/07 06:56:22;;;;;;;8.15;3.40;;;17.90;99.90;;;;;;4993024;28;1047410;-81
2022/09/07 06:58:55;;;;;;;6.88;3.72;;;18.00;99.90;;;;;;5029667;28;21110;-81
2022/09/07 07:01:21;;;;;;;5.45;3.67;;;18.10;99.90;;;;;;5029684;28;20117;-81
2022/09/07 07:03:47;;;;;;;7.32;3.35;;;18.20;99.90;;;;;;5029107;28;20025;-81
2022/09/07 07:06:13;;;;;;;10.45;3.50;;;18.30;99.90;;;;;;5029738;28;20048;-81
2022/09/07 07:08:39;;;;;;;5.97;3.13;;;18.40;99.90;;;;;;5029739;28;20618;-81
2022/09/07 07:11:07;;;;;;;7.55;3.15;;;18.50;99.90;;;;;;5028242;28;20035;-81
2022/09/07 07:13:34;;;;;;;8.63;3.22;;;18.60;99.90;;;;;;5030084;28;20120;-79
2022/09/07 07:16:04;;;;;;;7.97;3.10;;;18.80;99.90;;;;;;5032655;28;20060;-80
2022/09/07 07:18:31;;;;;;;4.53;2.35;;;18.90;99.90;;;;;;5040214;28;20457;-79
2022/09/07 07:20:56;;;;;;;7.60;2.78;;;19.00;99.90;;;;;;5029648;28;20030;-79
2022/09/07 07:23:22;;;;;;;7.32;2.83;;;19.20;99.90;;;;;;5030657;28;20367;-79
2022/09/07 07:25:47;;;;;;;5.28;2.42;;;19.30;99.90;;;;;;5028132;28;20775;-79
2022/09/07 07:28:13;;;;;;;6.00;2.50;;;19.50;99.90;;;;;;5039425;28;20029;-80
2022/09/07 07:30:38;;;;;;;7.03;2.40;;;19.70;99.90;;;;;;5043684;28;20036;-79
2022/09/07 07:33:06;;;;;;;6.30;2.38;;;19.80;99.90;;;;;;5030780;28;20029;-79
2022/09/07 07:35:32;;;;;;;6.07;2.72;;;19.90;99.90;;;;;;5036292;28;20025;-79
2022/09/07 07:37:58;;;;;;;7.10;2.63;;;20.00;99.90;;;;;;5035047;28;20044;-79
2022/09/07 07:40:24;;;;;;;4.70;2.20;;;20.00;99.90;;;;;;5028723;28;20038;-79
2022/09/07 07:42:49;;;;;;;6.47;2.65;;;19.90;99.90;;;;;;5028708;28;20048;-79
2022/09/07 07:45:15;;;;;;;6.72;2.63;;;19.90;99.90;;;;;;5028936;28;20072;-79
2022/09/07 07:47:41;;;;;;;5.45;2.45;;;19.90;99.90;;;;;;5035425;28;20786;-79
2022/09/07 07:50:07;;;;;;;6.22;2.75;;;19.90;99.90;;;;;;5042672;28;21698;-79
2022/09/07 07:52:35;;;;;;;7.50;2.45;;;20.00;99.90;;;;;;5032089;28;20071;-79
2022/09/07 07:55:00;;;;;;;6.80;2.60;;;20.00;99.90;;;;;;5037557;28;20025;-79
2022/09/07 07:57:27;;;;;;;10.88;2.50;;;20.00;99.90;;;;;;5037020;28;20092;-79
2022/09/07 07:59:52;;;;;;;7.00;2.92;;;20.00;99.90;;;;;;5032256;28;20110;-79
2022/09/07 08:02:18;;;;;;;7.53;2.78;;;20.10;99.90;;;;;;5034308;28;20425;-79
2022/09/07 08:04:43;;;;;;;7.05;3.00;;;20.10;99.90;;;;;;5042378;28;20036;-79
2022/09/07 08:07:12;;;;;;;5.93;2.50;;;20.20;99.90;;;;;;5044851;28;20017;-79
2022/09/07 08:09:39;;;;;;;5.60;2.58;;;20.20;99.90;;;;;;5033640;28;20115;-79
2022/09/07 08:12:05;;;;;;;8.05;2.53;;;20.20;99.90;;;;;;5029077;28;20017;-79
2022/09/07 08:14:31;;;;;;;7.10;2.72;;;20.30;99.90;;;;;;5029118;28;20433;-79
2022/09/07 08:16:56;;;;;;;6.35;2.63;;;20.30;99.90;;;;;;5042134;28;20025;-79
2022/09/07 08:19:22;;;;;;;5.95;2.40;;;20.40;99.90;;;;;;5029166;28;20120;-79
2022/09/07 08:21:47;;;;;;;6.72;2.20;;;20.50;99.90;;;;;;5027941;28;20037;-79
2022/09/07 08:24:13;;;;;;;4.40;2.20;;;20.60;99.90;;;;;;5028196;28;20483;-79
2022/09/07 08:26:38;;;;;;;7.70;2.53;;;20.80;99.90;;;;;;5028639;28;20554;-79
2022/09/07 08:29:04;;;;;;;5.40;2.33;;;20.80;99.90;;;;;;5044444;28;20529;-80
2022/09/07 08:31:29;;;;;;;8.77;2.67;;;20.80;99.90;;;;;;5047607;28;20428;-79
2022/09/07 08:33:55;;;;;;;6.03;2.55;;;20.90;99.90;;;;;;5032593;28;20475;-78
2022/09/07 08:36:21;;;;;;;8.25;2.22;;;21.00;99.90;;;;;;5034737;28;20033;-79
2022/09/07 08:38:47;;;;;;;5.93;2.33;;;21.00;99.90;;;;;;5035515;28;20110;-79
2022/09/07 08:41:31;;;;;;;8.60;2.45;;;21.10;99.90;;;;;;5032823;28;20060;-79
2022/09/07 08:44:05;;;;;;;10.25;2.50;;;21.10;99.90;;;;;;5046879;28;20029;-79
2022/09/07 08:46:46;;;;;;;7.78;2.22;;;21.20;99.90;;;;;;5047571;28;20040;-79
2022/09/07 08:49:30;;;;;;;7.10;2.30;;;21.40;99.90;;;;;;5044102;28;20116;-79
2022/09/07 08:52:10;;;;;;;6.07;2.95;;;21.50;99.90;;;;;;5048298;28;20025;-79
2022/09/07 08:54:37;;;;;;;5.93;2.30;;;21.70;99.90;;;;;;5047955;28;20029;-79
2022/09/07 08:57:03;;;;;;;6.43;2.40;;;21.80;99.90;;;;;;5047694;28;20044;-79
2022/09/07 08:59:42;;;;;;;5.38;2.28;;;22.00;99.90;;;;;;5043339;28;20040;-79
2022/09/07 09:02:14;;;;;;;5.93;1.90;;;22.10;99.90;;;;;;5043466;28;20041;-79
2022/09/07 09:04:41;;;;;;;9.57;2.30;;;22.30;99.90;;;;;;5031273;28;20026;-79
2022/09/07 09:07:19;;;;;;;5.03;1.92;;;22.50;99.90;;;;;;5038646;28;20032;-80
2022/09/07 09:09:59;;;;;;;5.40;2.05;;;22.70;99.90;;;;;;5038235;28;20032;-79
2022/09/07 09:12:32;;;;;;;6.32;2.00;;;22.90;99.90;;;;;;5038888;28;20025;-79
2022/09/07 09:15:22;;;;;;;4.85;1.90;;;23.10;99.90;;;;;;5027799;28;20033;-79
2022/09/07 09:18:14;;;;;;;5.13;1.92;;;23.30;99.90;;;;;;5027840;28;20367;-79
2022/09/07 09:20:52;;;;;;;3.58;1.65;;;23.70;99.90;;;;;;5020386;28;20090;-79
2022/09/07 09:23:22;;;;;;;5.10;1.50;;;23.80;99.90;;;;;;5028192;28;20504;-79
2022/09/07 09:25:57;;;;;;;4.53;1.95;;;24.10;99.90;;;;;;5028792;28;20498;-79
2022/09/07 09:28:23;;;;;;;5.00;2.03;;;24.20;99.90;;;;;;5027868;28;20033;-79
2022/09/07 09:30:49;;;;;;;5.88;1.80;;;24.50;99.90;;;;;;5045088;28;20021;-79
2022/09/07 09:33:22;;;;;;;7.60;2.10;;;24.60;99.90;;;;;;5047893;28;20086;-79
2022/09/07 09:35:50;;;;;;;7.47;1.50;;;24.80;99.90;;;;;;5040976;28;20056;-79
2022/09/07 09:38:28;;;;;;;4.78;1.80;;;24.90;99.90;;;;;;5043165;28;20033;-79
2022/09/07 09:40:55;;;;;;;5.60;1.50;;;25.00;99.90;;;;;;5045649;28;20108;-80
2022/09/07 09:43:24;;;;;;;5.80;1.90;;;25.20;99.90;;;;;;5035734;28;20037;-79
2022/09/07 09:45:53;;;;;;;5.35;1.30;;;25.30;99.90;;;;;;5047494;28;20025;-79
2022/09/07 09:48:35;;;;;;;4.22;1.35;;;25.60;99.90;;;;;;5047910;28;20029;-79
2022/09/07 09:51:05;;;;;;;4.45;1.45;;;25.60;99.90;;;;;;5041013;28;20021;-79
2022/09/07 09:53:36;;;;;;;3.63;1.50;;;25.70;99.90;;;;;;5046468;28;20128;-79
2022/09/07 09:56:03;;;;;;;2.75;1.45;;;26.10;99.90;;;;;;5051170;28;20045;-79
2022/09/07 09:58:34;;;;;;;4.43;1.75;;;26.40;99.90;;;;;;5051175;28;20079;-79
2022/09/07 10:01:02;;;;;;;6.53;1.60;;;26.30;99.90;;;;;;5048014;28;20036;-79
2022/09/07 10:03:33;;;;;;;4.18;1.50;;;26.30;99.90;;;;;;5045026;28;20087;-79
2022/09/07 10:06:02;;;;;;;4.78;1.25;;;26.40;99.90;;;;;;5030628;28;20096;-79
2022/09/07 10:08:30;;;;;;;5.15;1.40;;;26.40;99.90;;;;;;5034061;28;20394;-79
2022/09/07 10:11:05;;;;;;;6.85;1.30;;;26.70;99.90;;;;;;5035887;28;20057;-79
2022/09/07 10:13:40;;;;;;;7.30;1.50;;;26.70;99.90;;;;;;5037763;28;20021;-79
2022/09/07 10:16:08;;;;;;;4.28;1.38;;;26.70;99.90;;;;;;5031016;28;20029;-79
2022/09/07 10:18:37;;;;;;;3.20;1.58;;;26.70;99.90;;;;;;5046305;28;20425;-79
2022/09/07 10:21:27;;;;;;;4.97;1.45;;;26.90;99.90;;;;;;5036585;28;20041;-80
2022/09/07 10:24:12;;;;;;;4.72;1.20;;;26.90;99.90;;;;;;5027198;28;20468;-79
2022/09/07 10:26:38;;;;;;;5.57;1.25;;;26.90;99.90;;;;;;5042894;28;20033;-79
2022/09/07 10:29:29;;;;;;;4.60;1.55;;;26.90;99.90;;;;;;5045934;28;20390;-79
2022/09/07 10:32:17;;;;;;;3.60;1.42;;;27.00;99.90;;;;;;5024713;28;20517;-80
2022/09/07 10:34:54;;;;;;;4.88;1.55;;;26.90;99.90;;;;;;5022633;28;20033;-79
2022/09/07 10:37:36;;;;;;;2.58;1.30;;;26.90;99.90;;;;;;5044462;28;20025;-79
2022/09/07 10:40:11;;;;;;;8.13;1.50;;;27.10;99.90;;;;;;5030514;28;20033;-80
2022/09/07 10:42:44;;;;;;;5.80;1.27;;;27.00;99.90;;;;;;5044720;28;20334;-79
2022/09/07 10:45:25;;;;;;;6.75;1.58;;;27.10;99.90;;;;;;5030799;28;20025;-79
2022/09/07 10:48:02;;;;;;;4.22;1.63;;;27.20;99.90;;;;;;5040292;28;20029;-79
2022/09/07 10:50:45;;;;;;;4.90;1.65;;;27.00;99.90;;;;;;5044710;28;20056;-79
2022/09/07 10:53:20;;;;;;;4.55;1.65;;;26.90;99.90;;;;;;5039783;28;20030;-79
2022/09/07 10:55:58;;;;;;;3.22;1.30;;;26.80;99.90;;;;;;5036553;28;20038;-80
2022/09/07 10:58:54;;;;;;;3.35;1.38;;;26.90;99.90;;;;;;5026731;28;20068;-79
2022/09/07 11:01:30;;;;;;;4.03;1.55;;;26.90;99.90;;;;;;5029202;28;20038;-79
2022/09/07 11:04:25;;;;;;;5.25;1.67;;;27.00;99.90;;;;;;5026411;28;20092;-79
2022/09/07 11:06:59;;;;;;;4.30;1.50;;;27.10;99.90;;;;;;5030541;28;20049;-80
2022/09/07 11:09:44;;;;;;;3.33;1.27;;;27.20;99.90;;;;;;5038887;28;20048;-79
2022/09/07 11:12:17;;;;;;;;;;;27.20;99.90;;;;;;5028590;28;20110;-80
2022/09/07 11:14:46;;;;;;;8.70;1.63;;;27.30;99.90;;;;;;5029002;28;19963;-79
2022/09/07 11:17:17;;;;;;;6.13;1.73;;;27.70;99.90;;;;;;5029714;28;20029;-79
2022/09/07 11:19:48;;;;;;;6.40;1.50;;;28.10;99.90;;;;;;5028474;28;20052;-79
2022/09/07 11:22:19;;;;;;;4.90;1.70;;;28.30;99.90;;;;;;5029604;28;20041;-79
2022/09/07 11:25:13;;;;;;;3.88;1.58;;;28.60;99.90;;;;;;5030416;28;20033;-79
2022/09/07 11:27:54;;;;;;;4.03;1.70;;;28.70;99.90;;;;;;5035021;28;20377;-79
2022/09/07 11:30:27;;;;;;;4.53;1.50;;;29.10;99.90;;;;;;5038479;28;20106;-80
2022/09/07 11:33:15;;;;;;;6.20;1.70;;;29.40;99.90;;;;;;5038134;28;20021;-79
2022/09/07 11:35:59;;;;;;;5.40;1.40;;;29.60;99.90;;;;;;5036996;28;20519;-79
2022/09/07 11:38:34;;;;;;;6.47;1.63;;;29.40;99.90;;;;;;5040303;28;20022;-79
2022/09/07 11:41:11;;;;;;;;;;;28.90;99.90;;;;;;5048831;28;20040;-79
2022/09/07 11:44:03;;;;;;;4.72;1.52;;;28.60;99.90;;;;;;5053883;28;19908;-79
2022/09/07 11:46:39;;;;;;;6.03;1.70;;;28.40;99.90;;;;;;5043896;28;20067;-78
2022/09/07 11:49:11;;;;;;;4.63;1.50;;;28.20;99.90;;;;;;5037362;28;20029;-79
2022/09/07 11:51:55;;;;;;;4.97;1.90;;;28.10;99.90;;;;;;5036310;28;20017;-79
2022/09/07 11:54:30;;;;;;;6.50;1.48;;;28.20;99.90;;;;;;5032040;28;20030;-79
2022/09/07 11:57:07;;;;;;;5.00;1.80;;;28.50;99.90;;;;;;5031129;28;20045;-79
2022/09/07 11:59:59;;;;;;;4.97;1.70;;;28.80;99.90;;;;;;5032045;28;20583;-79
2022/09/07 12:02:31;;;;;;;7.07;1.98;;;29.40;99.90;;;;;;5031442;28;20039;-79
2022/09/07 12:05:32;;;;;;;6.15;1.88;;;29.80;99.90;;;;;;5030862;28;20025;-79
2022/09/07 12:08:11;;;;;;;6.35;1.70;;;29.80;99.90;;;;;;5031151;28;20490;-79
2022/09/07 12:11:18;;;;;;;5.95;1.63;;;29.90;99.90;;;;;;5035617;28;20028;-79
2022/09/07 12:13:58;;;;;;;4.15;1.40;;;30.00;99.90;;;;;;5000879;28;20446;-79
2022/09/07 12:16:53;;;;;;;5.18;1.85;;;30.50;99.90;;;;;;5030781;28;20033;-79
2022/09/07 12:19:22;;;;;;;3.17;1.48;;;30.60;99.90;;;;;;5020171;28;20171;-79
2022/09/07 12:21:55;;;;;;;6.93;1.73;;;31.00;99.90;;;;;;5030358;28;20422;-79
2022/09/07 12:24:43;;;;;;;4.80;1.77;;;30.70;99.90;;;;;;5030222;28;20163;-79
2022/09/07 12:27:21;;;;;;;4.18;1.60;;;30.70;99.90;;;;;;5028401;28;20026;-79
2022/09/07 12:29:47;;;;;;;4.93;1.42;;;30.80;99.90;;;;;;5036878;28;20087;-79
2022/09/07 12:32:47;;;;;;;4.50;1.60;;;30.90;99.90;;;;;;5044901;28;20083;-79
2022/09/07 12:35:25;;;;;;;7.10;1.50;;;31.20;99.90;;;;;;5031433;28;20029;-79
2022/09/07 12:38:00;;;;;;;4.03;1.42;;;31.20;99.90;;;;;;5043310;28;20060;-79
2022/09/07 12:40:28;;;;;;;6.53;1.48;;;31.60;99.90;;;;;;5027375;28;20037;-79
2022/09/07 12:43:12;;;;;;;8.30;1.88;;;31.90;99.90;;;;;;5026687;28;20084;-79
2022/09/07 12:45:38;;;;;;;4.03;1.30;;;31.60;99.90;;;;;;5027139;28;20863;-79
2022/09/07 12:48:15;;;;;;;3.53;1.23;;;31.60;99.90;;;;;;5035839;28;20116;-79
2022/09/07 12:51:05;;;;;;;6.93;1.42;;;31.20;99.90;;;;;;5048298;28;20033;-79
2022/09/07 12:53:39;;;;;;;7.13;1.80;;;31.40;99.90;;;;;;5031515;28;20068;-79
2022/09/07 12:56:35;;;;;;;5.43;2.00;;;31.20;99.90;;;;;;5029406;28;20061;-79
2022/09/07 12:59:27;;;;;;;6.20;2.05;;;31.20;99.90;;;;;;5047120;28;20036;-79
2022/09/07 13:02:22;;;;;;;5.72;1.52;;;31.20;99.90;;;;;;5039690;28;20033;-79
2022/09/07 13:05:02;;;;;;;5.55;1.63;;;31.20;99.90;;;;;;5036287;28;20033;-79
2022/09/07 13:07:42;;;;;;;6.43;2.00;;;31.40;99.90;;;;;;5048515;28;20087;-79